sensor_id;sensor_type;location;lat;lon;timestamp;pressure;altitude;pressure_sealevel;temperature;humidity
20630;BME280;17386;43.846;25.950;2023-12-14T00:01:53;100218.66;;;6.45;100.00
20630;BME280;17386;43.846;25.950;2023-12-14T00:04:19;100225.59;;;6.48;100.00
20630;BME280;17386;43.846;25.950;2023-12-14T00:06:44;100228.19;;;6.49;100.00
20630;BME280;17386;43.846;25.950;2023-12-14T00:09:10;100224.72;;;6.47;100.00
20630;BME280;17386;43.846;25.950;2023-12-14T00:11:38;100220.59;;;6.37;100.00
20630;BME280;17386;43.846;25.950;2023-12-14T00:14:04;100218.00;;;6.36;100.00
20630;BME280;17386;43.846;25.950;2023-12-14T00:16:30;100222.38;;;6.37;100.00
20630;BME280;17386;43.846;25.950;2023-12-14T00:18:55;100206.50;;;6.38;100.00
20630;BME280;17386;43.846;25.950;2023-12-14T00:21:21;100210.84;;;6.41;100.00
20630;BME280;17386;43.846;25.950;2023-12-14T00:23:46;100216.13;;;6.41;100.00
20630;BME280;17386;43.846;25.950;2023-12-14T00:26:12;100232.88;;;6.38;100.00
20630;BME280;17386;43.846;25.950;2023-12-14T00:28:37;100222.88;;;6.17;100.00
20630;BME280;17386;43.846;25.950;2023-12-14T00:31:03;100240.47;;;6.18;100.00
20630;BME280;17386;43.846;25.950;2023-12-14T00:33:29;100208.34;;;6.02;100.00
20630;BME280;17386;43.846;25.950;2023-12-14T00:35:54;100233.69;;;6.08;100.00
20630;BME280;17386;43.846;25.950;2023-12-14T00:38:19;100228.59;;;6.00;100.00
20630;BME280;17386;43.846;25.950;2023-12-14T00:40:45;100224.94;;;6.06;100.00
20630;BME280;17386;43.846;25.950;2023-12-14T00:43:10;100226.56;;;6.11;100.00
20630;BME280;17386;43.846;25.950;2023-12-14T00:45:36;100214.16;;;6.15;100.00
20630;BME280;17386;43.846;25.950;2023-12-14T00:48:01;100208.72;;;6.21;100.00
20630;BME280;17386;43.846;25.950;2023-12-14T00:50:26;100218.31;;;6.23;100.00
20630;BME280;17386;43.846;25.950;2023-12-14T00:52:52;100216.53;;;6.24;100.00
20630;BME280;17386;43.846;25.950;2023-12-14T00:55:17;100207.72;;;6.26;100.00
20630;BME280;17386;43.846;25.950;2023-12-14T00:57:43;100211.13;;;6.30;100.00
20630;BME280;17386;43.846;25.950;2023-12-14T01:00:10;100222.50;;;6.32;100.00
20630;BME280;17386;43.846;25.950;2023-12-14T01:02:36;100218.22;;;6.28;100.00
20630;BME280;17386;43.846;25.950;2023-12-14T01:05:02;100219.38;;;6.16;100.00
20630;BME280;17386;43.846;25.950;2023-12-14T01:07:27;100224.66;;;6.16;100.00
20630;BME280;17386;43.846;25.950;2023-12-14T01:09:53;100219.47;;;6.13;100.00
20630;BME280;17386;43.846;25.950;2023-12-14T01:12:18;100214.13;;;6.16;100.00
20630;BME280;17386;43.846;25.950;2023-12-14T01:14:43;100203.50;;;6.19;100.00
20630;BME280;17386;43.846;25.950;2023-12-14T01:17:09;100197.28;;;6.22;100.00
20630;BME280;17386;43.846;25.950;2023-12-14T01:19:34;100196.50;;;6.18;100.00
20630;BME280;17386;43.846;25.950;2023-12-14T01:22:00;100187.75;;;6.16;100.00
20630;BME280;17386;43.846;25.950;2023-12-14T01:24:25;100195.59;;;6.19;100.00
20630;BME280;17386;43.846;25.950;2023-12-14T01:26:51;100184.09;;;6.22;100.00
20630;BME280;17386;43.846;25.950;2023-12-14T01:29:16;100188.41;;;6.24;100.00
20630;BME280;17386;43.846;25.950;2023-12-14T01:31:42;100196.34;;;6.23;100.00
20630;BME280;17386;43.846;25.950;2023-12-14T01:34:07;100185.09;;;6.16;100.00
20630;BME280;17386;43.846;25.950;2023-12-14T01:36:33;100178.03;;;6.18;100.00
20630;BME280;17386;43.846;25.950;2023-12-14T01:39:00;100168.31;;;6.20;100.00
20630;BME280;17386;43.846;25.950;2023-12-14T01:41:25;100180.47;;;6.26;100.00
20630;BME280;17386;43.846;25.950;2023-12-14T01:43:51;100183.13;;;6.24;100.00
20630;BME280;17386;43.846;25.950;2023-12-14T01:46:16;100180.69;;;6.18;100.00
20630;BME280;17386;43.846;25.950;2023-12-14T01:48:42;100184.28;;;6.14;100.00
20630;BME280;17386;43.846;25.950;2023-12-14T01:51:07;100185.09;;;6.16;100.00
20630;BME280;17386;43.846;25.950;2023-12-14T01:53:33;100178.22;;;6.11;100.00
20630;BME280;17386;43.846;25.950;2023-12-14T01:55:58;100181.69;;;6.13;100.00
20630;BME280;17386;43.846;25.950;2023-12-14T01:58:24;100188.69;;;6.14;100.00
20630;BME280;17386;43.846;25.950;2023-12-14T02:01:05;100187.84;;;6.13;100.00
20630;BME280;17386;43.846;25.950;2023-12-14T02:03:33;100182.63;;;6.10;100.00
20630;BME280;17386;43.846;25.950;2023-12-14T02:05:58;100182.63;;;6.10;100.00
20630;BME280;17386;43.846;25.950;2023-12-14T02:08:24;100180.84;;;6.12;100.00
20630;BME280;17386;43.846;25.950;2023-12-14T02:10:50;100181.69;;;6.13;100.00
20630;BME280;17386;43.846;25.950;2023-12-14T02:13:15;100183.31;;;6.17;100.00
20630;BME280;17386;43.846;25.950;2023-12-14T02:15:41;100177.13;;;6.19;100.00
20630;BME280;17386;43.846;25.950;2023-12-14T02:18:07;100179.66;;;6.22;100.00
20630;BME280;17386;43.846;25.950;2023-12-14T02:20:33;100180.47;;;6.24;100.00
20630;BME280;17386;43.846;25.950;2023-12-14T02:22:58;100184.91;;;6.24;100.00
20630;BME280;17386;43.846;25.950;2023-12-14T02:25:24;100170.88;;;6.22;100.00
20630;BME280;17386;43.846;25.950;2023-12-14T02:27:50;100161.16;;;6.24;100.00
20630;BME280;17386;43.846;25.950;2023-12-14T02:30:16;100161.13;;;6.25;100.00
20630;BME280;17386;43.846;25.950;2023-12-14T02:32:42;100170.81;;;6.25;100.00
20630;BME280;17386;43.846;25.950;2023-12-14T02:35:08;100176.13;;;6.23;100.00
20630;BME280;17386;43.846;25.950;2023-12-14T02:37:34;100163.84;;;6.22;100.00
20630;BME280;17386;43.846;25.950;2023-12-14T02:40:03;100168.31;;;6.20;100.00
20630;BME280;17386;43.846;25.950;2023-12-14T02:42:29;100170.03;;;6.21;100.00
20630;BME280;17386;43.846;25.950;2023-12-14T02:44:54;100156.75;;;6.24;100.00
20630;BME280;17386;43.846;25.950;2023-12-14T02:47:20;100172.50;;;6.27;100.00
20630;BME280;17386;43.846;25.950;2023-12-14T02:49:45;100171.53;;;6.30;100.00
20630;BME280;17386;43.846;25.950;2023-12-14T02:52:10;100164.53;;;6.29;100.00
20630;BME280;17386;43.846;25.950;2023-12-14T02:54:38;100171.53;;;6.32;100.00
20630;BME280;17386;43.846;25.950;2023-12-14T02:57:04;100165.34;;;6.33;100.00
20630;BME280;17386;43.846;25.950;2023-12-14T02:59:29;100175.91;;;6.33;100.00
20630;BME280;17386;43.846;25.950;2023-12-14T03:01:55;100169.81;;;6.29;100.00
20630;BME280;17386;43.846;25.950;2023-12-14T03:04:20;100161.78;;;6.34;100.00
20630;BME280;17386;43.846;25.950;2023-12-14T03:06:46;100169.66;;;6.35;100.00
20630;BME280;17386;43.846;25.950;2023-12-14T03:09:11;100161.78;;;6.34;100.00
20630;BME280;17386;43.846;25.950;2023-12-14T03:11:36;100166.06;;;6.38;100.00
20630;BME280;17386;43.846;25.950;2023-12-14T03:14:02;100170.44;;;6.39;100.00
20630;BME280;17386;43.846;25.950;2023-12-14T03:16:27;100173.97;;;6.38;100.00
20630;BME280;17386;43.846;25.950;2023-12-14T03:18:52;100176.59;;;6.39;100.00
20630;BME280;17386;43.846;25.950;2023-12-14T03:21:19;100182.78;;;6.37;100.00
20630;BME280;17386;43.846;25.950;2023-12-14T03:23:45;100178.53;;;6.33;100.00
20630;BME280;17386;43.846;25.950;2023-12-14T03:26:10;100172.28;;;6.35;100.00
20630;BME280;17386;43.846;25.950;2023-12-14T03:28:36;100174.84;;;6.38;100.00
20630;BME280;17386;43.846;25.950;2023-12-14T03:31:01;100173.91;;;6.41;100.00
20630;BME280;17386;43.846;25.950;2023-12-14T03:33:27;100180.00;;;6.43;100.00
20630;BME280;17386;43.846;25.950;2023-12-14T03:35:52;100175.53;;;6.45;100.00
20630;BME280;17386;43.846;25.950;2023-12-14T03:38:18;100168.53;;;6.44;100.00
20630;BME280;17386;43.846;25.950;2023-12-14T03:40:43;100169.53;;;6.40;100.00
20630;BME280;17386;43.846;25.950;2023-12-14T03:43:09;100165.06;;;6.42;100.00
20630;BME280;17386;43.846;25.950;2023-12-14T03:45:35;100153.78;;;6.37;100.00
20630;BME280;17386;43.846;25.950;2023-12-14T03:48:00;100166.25;;;6.30;100.00
20630;BME280;17386;43.846;25.950;2023-12-14T03:50:25;100145.44;;;6.21;100.00
20630;BME280;17386;43.846;25.950;2023-12-14T03:52:51;100174.66;;;6.13;100.00
20630;BME280;17386;43.846;25.950;2023-12-14T03:55:16;100162.22;;;6.18;100.00
20630;BME280;17386;43.846;25.950;2023-12-14T03:57:42;100165.16;;;6.06;100.00
20630;BME280;17386;43.846;25.950;2023-12-14T04:00:10;100169.31;;;6.15;100.00
20630;BME280;17386;43.846;25.950;2023-12-14T04:02:36;100142.38;;;6.03;100.00
20630;BME280;17386;43.846;25.950;2023-12-14T04:05:01;100155.97;;;6.21;100.00
20630;BME280;17386;43.846;25.950;2023-12-14T04:07:26;100162.03;;;6.24;100.00
20630;BME280;17386;43.846;25.950;2023-12-14T04:09:52;100149.59;;;6.29;100.00
20630;BME280;17386;43.846;25.950;2023-12-14T04:12:18;100162.22;;;6.18;100.00
20630;BME280;17386;43.846;25.950;2023-12-14T04:14:43;100134.88;;;6.21;100.00
20630;BME280;17386;43.846;25.950;2023-12-14T04:17:10;100156.06;;;6.18;100.00
20630;BME280;17386;43.846;25.950;2023-12-14T04:19:38;100135.78;;;6.20;100.00
20630;BME280;17386;43.846;25.950;2023-12-14T04:22:10;100142.78;;;6.21;100.00
20630;BME280;17386;43.846;25.950;2023-12-14T04:24:35;100138.22;;;6.27;100.00
20630;BME280;17386;43.846;25.950;2023-12-14T04:27:01;100139.94;;;6.28;100.00
20630;BME280;17386;43.846;25.950;2023-12-14T04:29:26;100143.38;;;6.32;100.00
20630;BME280;17386;43.846;25.950;2023-12-14T04:31:52;100148.50;;;6.37;100.00
20630;BME280;17386;43.846;25.950;2023-12-14T04:34:18;100139.66;;;6.39;100.00
20630;BME280;17386;43.846;25.950;2023-12-14T04:36:47;100142.16;;;6.44;100.00
20630;BME280;17386;43.846;25.950;2023-12-14T04:39:13;100143.69;;;6.51;100.00
20630;BME280;17386;43.846;25.950;2023-12-14T04:41:38;100144.44;;;6.56;100.00
20630;BME280;17386;43.846;25.950;2023-12-14T04:44:04;100137.50;;;6.53;100.00
20630;BME280;17386;43.846;25.950;2023-12-14T04:46:29;100137.53;;;6.52;100.00
20630;BME280;17386;43.846;25.950;2023-12-14T04:48:55;100134.84;;;6.53;100.00
20630;BME280;17386;43.846;25.950;2023-12-14T04:51:21;100120.00;;;6.49;100.00
20630;BME280;17386;43.846;25.950;2023-12-14T04:53:46;100126.66;;;6.63;100.00
20630;BME280;17386;43.846;25.950;2023-12-14T04:56:12;100123.09;;;6.64;100.00
20630;BME280;17386;43.846;25.950;2023-12-14T04:58:41;100107.25;;;6.64;100.00
20630;BME280;17386;43.846;25.950;2023-12-14T05:01:07;100117.81;;;6.64;100.00
20630;BME280;17386;43.846;25.950;2023-12-14T05:03:34;100102.22;;;6.56;100.00
20630;BME280;17386;43.846;25.950;2023-12-14T05:05:59;100105.66;;;6.58;100.00
20630;BME280;17386;43.846;25.950;2023-12-14T05:08:25;100117.00;;;6.62;100.00
20630;BME280;17386;43.846;25.950;2023-12-14T05:10:50;100102.28;;;6.54;100.00
20630;BME280;17386;43.846;25.950;2023-12-14T05:13:16;100122.56;;;6.52;100.00
20630;BME280;17386;43.846;25.950;2023-12-14T05:15:41;100128.66;;;6.54;100.00
20630;BME280;17386;43.846;25.950;2023-12-14T05:18:07;100110.25;;;6.53;100.00
20630;BME280;17386;43.846;25.950;2023-12-14T05:20:33;100108.50;;;6.52;100.00
20630;BME280;17386;43.846;25.950;2023-12-14T05:22:59;100106.75;;;6.51;100.00
20630;BME280;17386;43.846;25.950;2023-12-14T05:25:24;100103.25;;;6.50;100.00
20630;BME280;17386;43.846;25.950;2023-12-14T05:27:50;100103.44;;;6.44;100.00
20630;BME280;17386;43.846;25.950;2023-12-14T05:30:15;100106.16;;;6.41;100.00
20630;BME280;17386;43.846;25.950;2023-12-14T05:32:41;100097.41;;;6.41;100.00
20630;BME280;17386;43.846;25.950;2023-12-14T05:35:07;100093.03;;;6.40;100.00
20630;BME280;17386;43.846;25.950;2023-12-14T05:37:32;100108.84;;;6.40;100.00
20630;BME280;17386;43.846;25.950;2023-12-14T05:39:58;100112.59;;;6.33;100.00
20630;BME280;17386;43.846;25.950;2023-12-14T05:42:23;100114.19;;;6.37;100.00
20630;BME280;17386;43.846;25.950;2023-12-14T05:44:49;100106.34;;;6.35;100.00
20630;BME280;17386;43.846;25.950;2023-12-14T05:47:14;100112.66;;;6.29;100.00
20630;BME280;17386;43.846;25.950;2023-12-14T05:49:43;100123.25;;;6.28;100.00
20630;BME280;17386;43.846;25.950;2023-12-14T05:52:09;100119.06;;;6.21;100.00
20630;BME280;17386;43.846;25.950;2023-12-14T05:54:38;100125.63;;;6.06;100.00
20630;BME280;17386;43.846;25.950;2023-12-14T05:57:07;100121.97;;;6.10;100.00
20630;BME280;17386;43.846;25.950;2023-12-14T05:59:32;100127.06;;;5.84;100.00
20630;BME280;17386;43.846;25.950;2023-12-14T06:01:59;100121.53;;;5.94;100.00
20630;BME280;17386;43.846;25.950;2023-12-14T06:04:26;100127.88;;;5.86;100.00
20630;BME280;17386;43.846;25.950;2023-12-14T06:06:51;100130.41;;;5.90;100.00
20630;BME280;17386;43.846;25.950;2023-12-14T06:09:17;100148.00;;;5.88;100.00
20630;BME280;17386;43.846;25.950;2023-12-14T06:11:44;100179.22;;;5.71;100.00
20630;BME280;17386;43.846;25.950;2023-12-14T06:14:10;100209.22;;;5.65;100.00
20630;BME280;17386;43.846;25.950;2023-12-14T06:16:35;100227.13;;;5.51;100.00
20630;BME280;17386;43.846;25.950;2023-12-14T06:19:01;100257.41;;;5.32;100.00
20630;BME280;17386;43.846;25.950;2023-12-14T06:21:26;100209.91;;;5.35;100.00
20630;BME280;17386;43.846;25.950;2023-12-14T06:23:55;100270.06;;;5.14;100.00
20630;BME280;17386;43.846;25.950;2023-12-14T06:26:20;100197.22;;;5.15;100.00
20630;BME280;17386;43.846;25.950;2023-12-14T06:28:45;100265.72;;;5.12;100.00
20630;BME280;17386;43.846;25.950;2023-12-14T06:31:15;100226.00;;;5.22;100.00
20630;BME280;17386;43.846;25.950;2023-12-14T06:33:41;100256.63;;;5.27;100.00
20630;BME280;17386;43.846;25.950;2023-12-14T06:36:08;100237.28;;;5.29;100.00
20630;BME280;17386;43.846;25.950;2023-12-14T06:38:33;100231.16;;;5.29;100.00
20630;BME280;17386;43.846;25.950;2023-12-14T06:41:00;100251.03;;;5.42;100.00
20630;BME280;17386;43.846;25.950;2023-12-14T06:43:27;100279.97;;;5.43;100.00
20630;BME280;17386;43.846;25.950;2023-12-14T06:45:52;100248.97;;;5.55;100.00
20630;BME280;17386;43.846;25.950;2023-12-14T06:48:18;100291.13;;;5.55;100.00
20630;BME280;17386;43.846;25.950;2023-12-14T06:50:46;100266.50;;;5.56;100.00
20630;BME280;17386;43.846;25.950;2023-12-14T06:53:12;100287.28;;;5.71;100.00
20630;BME280;17386;43.846;25.950;2023-12-14T06:55:37;100282.72;;;5.76;100.00
20630;BME280;17386;43.846;25.950;2023-12-14T06:58:04;100276.31;;;5.88;100.00
20630;BME280;17386;43.846;25.950;2023-12-14T07:00:33;100272.72;;;5.93;100.00
20630;BME280;17386;43.846;25.950;2023-12-14T07:02:59;100280.53;;;5.96;100.00
20630;BME280;17386;43.846;25.950;2023-12-14T07:05:24;100288.44;;;5.96;100.00
20630;BME280;17386;43.846;25.950;2023-12-14T07:07:50;100313.94;;;5.97;100.00
20630;BME280;17386;43.846;25.950;2023-12-14T07:10:16;100309.75;;;5.86;100.00
20630;BME280;17386;43.846;25.950;2023-12-14T07:12:41;100335.75;;;5.64;100.00
20630;BME280;17386;43.846;25.950;2023-12-14T07:15:07;100337.22;;;5.75;100.00
20630;BME280;17386;43.846;25.950;2023-12-14T07:17:33;100345.16;;;5.74;100.00
20630;BME280;17386;43.846;25.950;2023-12-14T07:19:58;100347.31;;;5.55;100.00
20630;BME280;17386;43.846;25.950;2023-12-14T07:22:24;100365.94;;;5.49;100.00
20630;BME280;17386;43.846;25.950;2023-12-14T07:24:49;100373.97;;;5.41;100.00
20630;BME280;17386;43.846;25.950;2023-12-14T07:27:15;100373.09;;;5.41;100.00
20630;BME280;17386;43.846;25.950;2023-12-14T07:29:40;100358.72;;;5.57;100.00
20630;BME280;17386;43.846;25.950;2023-12-14T07:32:05;100355.81;;;5.69;100.00
20630;BME280;17386;43.846;25.950;2023-12-14T07:34:31;100350.56;;;5.68;100.00
20630;BME280;17386;43.846;25.950;2023-12-14T07:36:56;100364.03;;;5.54;100.00
20630;BME280;17386;43.846;25.950;2023-12-14T07:39:22;100371.09;;;5.54;100.00
20630;BME280;17386;43.846;25.950;2023-12-14T07:41:47;100363.88;;;5.63;100.00
20630;BME280;17386;43.846;25.950;2023-12-14T07:44:12;100364.75;;;5.62;100.00
20630;BME280;17386;43.846;25.950;2023-12-14T07:46:38;100367.38;;;5.64;100.00
20630;BME280;17386;43.846;25.950;2023-12-14T07:49:07;100365.78;;;5.55;100.00
20630;BME280;17386;43.846;25.950;2023-12-14T07:51:32;100376.06;;;5.67;100.00
20630;BME280;17386;43.846;25.950;2023-12-14T07:53:58;100363.09;;;5.58;100.00
20630;BME280;17386;43.846;25.950;2023-12-14T07:56:23;100369.88;;;5.70;100.00
20630;BME280;17386;43.846;25.950;2023-12-14T07:58:52;100381.13;;;5.78;100.00
20630;BME280;17386;43.846;25.950;2023-12-14T08:01:17;100380.94;;;5.86;100.00
20630;BME280;17386;43.846;25.950;2023-12-14T08:03:43;100380.72;;;5.96;100.00
20630;BME280;17386;43.846;25.950;2023-12-14T08:06:08;100389.34;;;6.05;100.00
20630;BME280;17386;43.846;25.950;2023-12-14T08:08:34;100374.06;;;6.19;100.00
20630;BME280;17386;43.846;25.950;2023-12-14T08:10:59;100378.16;;;6.30;100.00
20630;BME280;17386;43.846;25.950;2023-12-14T08:13:24;100357.69;;;6.42;100.00
20630;BME280;17386;43.846;25.950;2023-12-14T08:15:50;100354.81;;;6.51;100.00
20630;BME280;17386;43.846;25.950;2023-12-14T08:18:15;100354.59;;;6.60;100.00
20630;BME280;17386;43.846;25.950;2023-12-14T08:20:41;100352.53;;;6.71;100.00
20630;BME280;17386;43.846;25.950;2023-12-14T08:23:06;100341.75;;;6.46;100.00
20630;BME280;17386;43.846;25.950;2023-12-14T08:25:32;100353.75;;;6.58;100.00
20630;BME280;17386;43.846;25.950;2023-12-14T08:27:57;100348.31;;;6.64;100.00
20630;BME280;17386;43.846;25.950;2023-12-14T08:30:23;100354.66;;;6.57;100.00
20630;BME280;17386;43.846;25.950;2023-12-14T08:32:49;100418.97;;;6.53;100.00
20630;BME280;17386;43.846;25.950;2023-12-14T08:35:14;100409.97;;;6.62;100.00
20630;BME280;17386;43.846;25.950;2023-12-14T08:37:40;100419.13;;;6.47;100.00
20630;BME280;17386;43.846;25.950;2023-12-14T08:40:06;100412.19;;;6.43;100.00
20630;BME280;17386;43.846;25.950;2023-12-14T08:42:32;100415.72;;;6.03;100.00
20630;BME280;17386;43.846;25.950;2023-12-14T08:44:58;100436.81;;;6.05;100.00
20630;BME280;17386;43.846;25.950;2023-12-14T08:47:24;100446.25;;;6.15;100.00
20630;BME280;17386;43.846;25.950;2023-12-14T08:49:49;100454.66;;;5.90;100.00
20630;BME280;17386;43.846;25.950;2023-12-14T08:52:15;100465.00;;;6.01;100.00
20630;BME280;17386;43.846;25.950;2023-12-14T08:54:40;100470.03;;;6.13;100.00
20630;BME280;17386;43.846;25.950;2023-12-14T08:57:08;100475.13;;;5.78;100.00
20630;BME280;17386;43.846;25.950;2023-12-14T08:59:34;100482.75;;;5.93;100.00
20630;BME280;17386;43.846;25.950;2023-12-14T09:01:59;100462.81;;;5.78;100.00
20630;BME280;17386;43.846;25.950;2023-12-14T09:04:25;100468.59;;;5.97;100.00
20630;BME280;17386;43.846;25.950;2023-12-14T09:06:50;100468.13;;;5.75;100.00
20630;BME280;17386;43.846;25.950;2023-12-14T09:09:16;100474.06;;;5.86;100.00
20630;BME280;17386;43.846;25.950;2023-12-14T09:11:44;100480.09;;;5.94;100.00
20630;BME280;17386;43.846;25.950;2023-12-14T09:14:09;100479.13;;;5.97;100.00
20630;BME280;17386;43.846;25.950;2023-12-14T09:16:34;100477.19;;;6.07;100.00
20630;BME280;17386;43.846;25.950;2023-12-14T09:19:00;100467.25;;;6.19;100.00
20630;BME280;17386;43.846;25.950;2023-12-14T09:21:25;100417.53;;;6.01;100.00
20630;BME280;17386;43.846;25.950;2023-12-14T09:23:51;100460.97;;;6.25;100.00
20630;BME280;17386;43.846;25.950;2023-12-14T09:26:18;100466.97;;;6.32;100.00
20630;BME280;17386;43.846;25.950;2023-12-14T09:28:44;100457.41;;;6.27;100.00
20630;BME280;17386;43.846;25.950;2023-12-14T09:31:09;100444.47;;;6.15;100.00
20630;BME280;17386;43.846;25.950;2023-12-14T09:33:35;100436.19;;;6.30;100.00
20630;BME280;17386;43.846;25.950;2023-12-14T09:36:01;100448.56;;;6.28;100.00
20630;BME280;17386;43.846;25.950;2023-12-14T09:38:26;100458.94;;;6.36;100.00
20630;BME280;17386;43.846;25.950;2023-12-14T09:40:52;100472.81;;;6.46;100.00
20630;BME280;17386;43.846;25.950;2023-12-14T09:43:17;100472.19;;;6.35;100.00
20630;BME280;17386;43.846;25.950;2023-12-14T09:45:44;100472.78;;;6.47;100.00
20630;BME280;17386;43.846;25.950;2023-12-14T09:48:11;100485.44;;;6.32;100.00
20630;BME280;17386;43.846;25.950;2023-12-14T09:50:39;100476.41;;;6.42;100.00
20630;BME280;17386;43.846;25.950;2023-12-14T09:53:04;100473.84;;;6.39;100.00
20630;BME280;17386;43.846;25.950;2023-12-14T09:55:30;100479.16;;;6.37;100.00
20630;BME280;17386;43.846;25.950;2023-12-14T09:57:56;100474.34;;;6.16;100.00
20630;BME280;17386;43.846;25.950;2023-12-14T10:00:35;100499.78;;;6.20;100.00
20630;BME280;17386;43.846;25.950;2023-12-14T10:03:24;100503.78;;;6.36;100.00
20630;BME280;17386;43.846;25.950;2023-12-14T10:05:52;100500.75;;;6.54;100.00
20630;BME280;17386;43.846;25.950;2023-12-14T10:08:18;100489.69;;;6.39;100.00
20630;BME280;17386;43.846;25.950;2023-12-14T10:10:46;100489.59;;;6.42;100.00
20630;BME280;17386;43.846;25.950;2023-12-14T10:13:11;100488.38;;;6.56;100.00
20630;BME280;17386;43.846;25.950;2023-12-14T10:15:44;100496.38;;;6.53;100.00
20630;BME280;17386;43.846;25.950;2023-12-14T10:18:10;100506.66;;;6.66;100.00
20630;BME280;17386;43.846;25.950;2023-12-14T10:20:36;100491.69;;;6.66;100.00
20630;BME280;17386;43.846;25.950;2023-12-14T10:23:04;100477.41;;;6.75;100.00
20630;BME280;17386;43.846;25.950;2023-12-14T10:25:30;100479.91;;;6.81;100.00
20630;BME280;17386;43.846;25.950;2023-12-14T10:27:56;100473.03;;;6.74;100.00
20630;BME280;17386;43.846;25.950;2023-12-14T10:30:22;100477.34;;;6.76;100.00
20630;BME280;17386;43.846;25.950;2023-12-14T10:32:48;100476.88;;;6.96;100.00
20630;BME280;17386;43.846;25.950;2023-12-14T10:35:16;100468.41;;;6.82;100.00
20630;BME280;17386;43.846;25.950;2023-12-14T10:37:42;100480.53;;;6.91;100.00
20630;BME280;17386;43.846;25.950;2023-12-14T10:40:11;100481.81;;;6.74;100.00
20630;BME280;17386;43.846;25.950;2023-12-14T10:42:39;100482.28;;;6.90;100.00
20630;BME280;17386;43.846;25.950;2023-12-14T10:45:07;100482.00;;;7.02;100.00
20630;BME280;17386;43.846;25.950;2023-12-14T10:47:34;100490.50;;;7.13;100.00
20630;BME280;17386;43.846;25.950;2023-12-14T10:50:00;100498.81;;;6.98;100.00
20630;BME280;17386;43.846;25.950;2023-12-14T10:52:27;100490.16;;;6.93;100.00
20630;BME280;17386;43.846;25.950;2023-12-14T10:54:56;100501.75;;;7.22;100.00
20630;BME280;17386;43.846;25.950;2023-12-14T10:57:23;100508.63;;;7.27;100.00
20630;BME280;17386;43.846;25.950;2023-12-14T10:59:49;100503.78;;;7.45;100.00
20630;BME280;17386;43.846;25.950;2023-12-14T11:02:15;100495.69;;;7.51;100.00
20630;BME280;17386;43.846;25.950;2023-12-14T11:04:57;100507.41;;;7.42;100.00
20630;BME280;17386;43.846;25.950;2023-12-14T11:08:01;100523.91;;;7.50;100.00
20630;BME280;17386;43.846;25.950;2023-12-14T11:10:37;100527.47;;;7.48;100.00
20630;BME280;17386;43.846;25.950;2023-12-14T11:13:06;100533.13;;;7.35;100.00
20630;BME280;17386;43.846;25.950;2023-12-14T11:15:35;100510.56;;;7.22;100.00
20630;BME280;17386;43.846;25.950;2023-12-14T11:23:10;100513.44;;;8.09;100.00
20630;BME280;17386;43.846;25.950;2023-12-14T11:25:36;100504.88;;;8.31;100.00
20630;BME280;17386;43.846;25.950;2023-12-14T11:28:03;100507.44;;;8.34;100.00
20630;BME280;17386;43.846;25.950;2023-12-14T11:30:29;100523.06;;;8.43;100.00
20630;BME280;17386;43.846;25.950;2023-12-14T11:32:55;100525.88;;;8.38;100.00
20630;BME280;17386;43.846;25.950;2023-12-14T11:35:20;100531.84;;;8.45;100.00
20630;BME280;17386;43.846;25.950;2023-12-14T11:37:45;100526.06;;;8.60;100.00
20630;BME280;17386;43.846;25.950;2023-12-14T11:40:11;100536.03;;;8.52;100.00
20630;BME280;17386;43.846;25.950;2023-12-14T11:42:38;100535.38;;;8.44;100.00
20630;BME280;17386;43.846;25.950;2023-12-14T11:45:04;100529.81;;;8.23;100.00
20630;BME280;17386;43.846;25.950;2023-12-14T11:47:29;100523.50;;;8.28;100.00
20630;BME280;17386;43.846;25.950;2023-12-14T11:49:55;100520.47;;;8.41;100.00
20630;BME280;17386;43.846;25.950;2023-12-14T11:52:21;100537.03;;;8.48;100.00
20630;BME280;17386;43.846;25.950;2023-12-14T11:54:47;100541.34;;;8.50;100.00
20630;BME280;17386;43.846;25.950;2023-12-14T11:57:12;100546.22;;;8.66;100.00
20630;BME280;17386;43.846;25.950;2023-12-14T11:59:37;100539.19;;;8.65;100.00
20630;BME280;17386;43.846;25.950;2023-12-14T12:02:03;100533.53;;;8.75;100.00
20630;BME280;17386;43.846;25.950;2023-12-14T12:04:29;100538.06;;;8.72;100.00
20630;BME280;17386;43.846;25.950;2023-12-14T12:07:03;100536.13;;;8.77;100.00
20630;BME280;17386;43.846;25.950;2023-12-14T12:09:47;100526.75;;;8.95;100.00
20630;BME280;17386;43.846;25.950;2023-12-14T12:12:13;100536.78;;;8.84;100.00
20630;BME280;17386;43.846;25.950;2023-12-14T12:14:39;100532.13;;;8.92;100.00
20630;BME280;17386;43.846;25.950;2023-12-14T12:17:06;100545.28;;;8.95;100.00
20630;BME280;17386;43.846;25.950;2023-12-14T12:19:36;100542.81;;;8.89;100.00
20630;BME280;17386;43.846;25.950;2023-12-14T12:22:02;100550.00;;;8.85;100.00
20630;BME280;17386;43.846;25.950;2023-12-14T12:24:28;100570.31;;;8.85;100.00
20630;BME280;17386;43.846;25.950;2023-12-14T12:26:54;100555.88;;;8.95;100.00
20630;BME280;17386;43.846;25.950;2023-12-14T12:29:21;100568.81;;;9.04;100.00
20630;BME280;17386;43.846;25.950;2023-12-14T12:31:46;100560.78;;;9.07;100.00
20630;BME280;17386;43.846;25.950;2023-12-14T12:34:12;100566.91;;;9.09;100.00
20630;BME280;17386;43.846;25.950;2023-12-14T12:36:37;100565.72;;;9.18;100.00
20630;BME280;17386;43.846;25.950;2023-12-14T12:39:03;100567.63;;;9.14;100.00
20630;BME280;17386;43.846;25.950;2023-12-14T12:41:31;100573.28;;;9.30;100.00